EDLV/NRN METAR and TAF weather

Enter ICAO airport designator
Station Type Date Time Source
EDLV METAR 2022/05/23 14:50 UTC NOAA

EDLV 231450Z 19005KT 140V230 9999 VCTS FEW035CB 22/18 Q0997


Station Type Date Time Source
EDLV Decoded METAR 2022/05/23 14:50 UTC NOAA

Niederrhein, Germany (EDLV) 51-36-09N 006-08-32E
May 23, 2022 - 10:50 AM EDT / 2022.05.23 1450 UTC
Wind: from the S (190 degrees) at 6 MPH (5 KT) (direction variable):0
Visibility: greater than 7 mile(s):0
Sky conditions: mostly clear
Weather: thunder in the vicinity; Cumulonimbus clouds observed
Temperature: 71 F (22 C)
Dew Point: 64 F (18 C)
Relative Humidity: 78%
Pressure (altimeter): 29.44 in. Hg (0997 hPa)
ob: EDLV 231450Z 19005KT 140V230 9999 VCTS FEW035CB 22/18 Q0997
cycle: 15

Station Type Date Time Source
EDLV TAF 2022/05/23 12:27 UTC NOAA

TAF EDLV 231100Z 2312/2412 15008KT 9999 SCT040
TEMPO 2314/2320 25015G25KT 4500 SHRA BKN020CB PROB30
TEMPO 2314/2318 21020G30KT 2500 +TSRAGR BKN015CB
BECMG 2315/2318 23006KT
BECMG 2320/2323 25011KT PROB40
TEMPO 2320/2324 BKN010
BECMG 2407/2410 23015G25KT

Example: see airport list